createdAt,value
2018-03-29T00:02:04.013Z,21.70
2018-03-29T00:04:31.928Z,18.93
2018-03-29T00:06:59.430Z,22.63
2018-03-29T00:09:26.899Z,22.40
2018-03-29T00:11:54.400Z,20.37
2018-03-29T00:14:21.935Z,24.23
2018-03-29T00:16:50.180Z,18.20
2018-03-29T00:19:17.662Z,21.60
2018-03-29T00:21:46.932Z,23.80
2018-03-29T00:24:14.388Z,32.47
2018-03-29T00:26:41.884Z,29.50
2018-03-29T00:29:10.108Z,27.07
2018-03-29T00:31:37.602Z,31.87
2018-03-29T00:34:05.084Z,29.00
2018-03-29T00:36:33.327Z,35.47
2018-03-29T00:39:00.819Z,27.27
2018-03-29T00:41:29.066Z,32.13
2018-03-29T00:43:56.538Z,30.37
2018-03-29T00:46:24.025Z,31.33
2018-03-29T00:48:52.262Z,29.27
2018-03-29T00:51:19.740Z,30.03
2018-03-29T00:53:47.223Z,31.30
2018-03-29T00:56:14.689Z,30.33
2018-03-29T00:58:42.200Z,26.67
2018-03-29T01:01:09.750Z,31.90
2018-03-29T01:03:37.233Z,27.20
2018-03-29T01:06:05.474Z,33.07
2018-03-29T01:08:32.955Z,24.37
2018-03-29T01:11:00.427Z,30.73
2018-03-29T01:13:28.697Z,22.67
2018-03-29T01:15:56.189Z,25.73
2018-03-29T01:18:23.661Z,27.50
2018-03-29T01:20:51.174Z,26.03
2018-03-29T01:23:18.670Z,28.37
2018-03-29T01:25:46.151Z,26.53
2018-03-29T01:28:13.602Z,25.60
2018-03-29T01:30:41.099Z,36.00
2018-03-29T01:33:09.338Z,40.43
2018-03-29T01:35:36.840Z,33.93
2018-03-29T01:38:04.309Z,28.47
2018-03-29T01:40:32.566Z,33.07
2018-03-29T01:43:00.032Z,42.17
2018-03-29T01:45:27.515Z,28.73
2018-03-29T01:47:55.762Z,36.33
2018-03-29T01:50:23.256Z,31.43
2018-03-29T01:52:50.724Z,38.60
2018-03-29T01:55:18.213Z,34.33
2018-03-29T01:57:45.684Z,35.20
2018-03-29T02:00:13.158Z,33.87
2018-03-29T02:02:40.610Z,29.50
2018-03-29T02:05:08.086Z,34.07
2018-03-29T02:07:36.349Z,31.17
2018-03-29T02:10:03.837Z,35.00
2018-03-29T02:12:32.087Z,30.77
2018-03-29T02:14:59.562Z,32.80
2018-03-29T02:17:27.826Z,38.43
2018-03-29T02:19:55.330Z,35.80
2018-03-29T02:22:22.805Z,33.37
2018-03-29T02:24:50.306Z,39.33
2018-03-29T02:27:17.814Z,35.30
2018-03-29T02:29:45.278Z,37.40
2018-03-29T02:32:12.771Z,33.43
2018-03-29T02:34:40.250Z,31.40
2018-03-29T02:37:08.494Z,41.00
2018-03-29T02:39:35.956Z,37.70
2018-03-29T02:42:03.452Z,38.53
2018-03-29T02:44:31.692Z,38.33
2018-03-29T02:46:59.205Z,33.50
2018-03-29T02:49:26.661Z,44.40
2018-03-29T02:51:54.141Z,40.73
2018-03-29T02:54:22.125Z,39.50
2018-03-29T02:56:49.602Z,33.60
2018-03-29T02:59:17.078Z,39.27
2018-03-29T03:01:45.317Z,43.90
2018-03-29T03:04:12.832Z,44.33
2018-03-29T03:06:40.261Z,37.27
2018-03-29T03:09:08.535Z,39.83
2018-03-29T03:11:35.999Z,41.17
2018-03-29T03:14:04.263Z,40.00
2018-03-29T03:16:31.796Z,42.53
2018-03-29T03:18:59.989Z,40.97
2018-03-29T03:21:27.462Z,48.13
2018-03-29T03:23:54.940Z,40.63
2018-03-29T03:26:23.188Z,46.73
2018-03-29T03:28:50.686Z,52.60
2018-03-29T03:31:18.924Z,44.87
2018-03-29T03:33:46.412Z,45.30
2018-03-29T03:36:14.672Z,44.93
2018-03-29T03:38:42.984Z,40.13
2018-03-29T03:41:10.464Z,49.90
2018-03-29T03:43:38.002Z,52.90
2018-03-29T03:46:05.511Z,50.33
2018-03-29T03:48:32.981Z,46.03
2018-03-29T03:51:00.493Z,52.73
2018-03-29T03:53:28.009Z,54.50
2018-03-29T03:55:56.259Z,54.83
2018-03-29T03:58:23.790Z,57.90
2018-03-29T04:00:51.259Z,55.27
2018-03-29T04:03:18.727Z,57.90
2018-03-29T04:05:46.198Z,62.00
2018-03-29T04:08:13.677Z,62.33
2018-03-29T04:10:41.922Z,62.10
2018-03-29T04:13:09.381Z,64.30
2018-03-29T04:15:36.853Z,70.90
2018-03-29T04:18:04.342Z,63.57
2018-03-29T04:20:32.576Z,63.33
2018-03-29T04:23:00.051Z,59.17
2018-03-29T04:25:27.531Z,63.00
2018-03-29T04:27:55.757Z,75.07
2018-03-29T04:30:23.358Z,62.27
2018-03-29T04:32:50.828Z,58.80
2018-03-29T04:35:19.079Z,76.83
2018-03-29T04:37:46.566Z,59.07
2018-03-29T04:40:14.043Z,71.87
2018-03-29T04:42:41.536Z,59.90
2018-03-29T04:45:09.016Z,69.73
2018-03-29T04:47:36.502Z,65.07
2018-03-29T04:50:03.992Z,65.03
2018-03-29T04:52:31.478Z,73.67
2018-03-29T04:54:58.970Z,64.77
2018-03-29T04:57:27.208Z,66.20
2018-03-29T04:59:54.699Z,67.50
2018-03-29T05:02:23.028Z,61.70
2018-03-29T05:04:50.500Z,75.40
2018-03-29T05:07:17.976Z,69.67
2018-03-29T05:09:45.453Z,70.00
2018-03-29T05:12:13.680Z,62.77
2018-03-29T05:14:41.164Z,62.40
2018-03-29T05:17:08.690Z,78.00
2018-03-29T05:19:36.161Z,66.20
2018-03-29T05:22:03.630Z,61.43
2018-03-29T05:24:31.127Z,61.50
2018-03-29T05:26:59.476Z,63.37
2018-03-29T05:29:26.955Z,76.00
2018-03-29T05:31:54.441Z,59.37
2018-03-29T05:34:21.936Z,59.30
2018-03-29T05:36:49.402Z,51.53
2018-03-29T05:39:16.893Z,61.87
2018-03-29T05:41:45.129Z,54.87
2018-03-29T05:44:12.658Z,58.03
2018-03-29T05:46:40.095Z,64.83
2018-03-29T05:49:08.334Z,58.27
2018-03-29T05:51:35.923Z,53.50
2018-03-29T05:54:04.188Z,58.23
2018-03-29T05:56:31.655Z,66.80
2018-03-29T05:58:59.887Z,53.50
2018-03-29T06:01:27.379Z,51.00
2018-03-29T06:03:54.847Z,58.57
2018-03-29T06:06:22.313Z,47.03
2018-03-29T06:08:50.593Z,52.33
2018-03-29T06:11:18.834Z,44.60
2018-03-29T06:13:46.310Z,52.17
2018-03-29T06:16:16.354Z,52.00
2018-03-29T06:18:43.846Z,48.50
2018-03-29T06:21:11.348Z,42.00
2018-03-29T06:23:39.590Z,38.80
2018-03-29T06:26:07.062Z,43.57
2018-03-29T06:28:34.559Z,44.23
2018-03-29T06:31:02.790Z,46.80
2018-03-29T06:33:30.283Z,46.37
2018-03-29T06:35:57.746Z,36.67
2018-03-29T06:38:26.031Z,42.23
2018-03-29T06:40:54.259Z,44.70
2018-03-29T06:43:21.755Z,37.20
2018-03-29T06:45:49.989Z,39.47
2018-03-29T06:48:17.463Z,42.63
2018-03-29T06:50:44.920Z,36.93
2018-03-29T06:53:12.447Z,41.93
2018-03-29T06:55:39.926Z,34.07
2018-03-29T06:58:07.455Z,40.20
2018-03-29T07:00:34.929Z,31.33
2018-03-29T07:03:02.428Z,30.07
2018-03-29T07:05:29.886Z,33.20
2018-03-29T07:07:57.377Z,27.17
2018-03-29T07:10:25.752Z,35.53
2018-03-29T07:12:54.035Z,35.50
2018-03-29T07:15:21.507Z,28.23
2018-03-29T07:17:48.990Z,27.33
2018-03-29T07:20:16.443Z,33.63
2018-03-29T07:22:43.931Z,27.37
2018-03-29T07:25:11.426Z,29.53
2018-03-29T07:27:39.696Z,23.47
2018-03-29T07:30:08.100Z,20.00
2018-03-29T07:32:35.573Z,23.67
2018-03-29T07:35:03.046Z,16.77
2018-03-29T07:37:30.520Z,15.60
2018-03-29T07:39:57.989Z,15.93
2018-03-29T07:42:25.472Z,12.93
2018-03-29T07:44:53.723Z,13.50
2018-03-29T07:47:21.197Z,13.47
2018-03-29T07:49:49.512Z,15.10
2018-03-29T07:52:16.975Z,12.80
2018-03-29T07:54:44.516Z,13.50
2018-03-29T07:57:11.982Z,14.90
2018-03-29T07:59:39.570Z,15.90
2018-03-29T08:02:07.128Z,14.17
2018-03-29T08:04:34.611Z,16.73
2018-03-29T08:07:02.086Z,16.70
2018-03-29T08:09:30.405Z,19.13
2018-03-29T08:11:57.920Z,13.10
2018-03-29T08:14:26.150Z,19.40
2018-03-29T08:16:54.290Z,15.47
2018-03-29T08:19:23.239Z,16.47
2018-03-29T08:21:50.724Z,24.10
2018-03-29T08:24:18.975Z,15.50
2018-03-29T08:26:46.453Z,19.90
2018-03-29T08:29:13.932Z,14.63
2018-03-29T08:31:42.218Z,21.53
2018-03-29T08:34:09.834Z,17.63
2018-03-29T08:36:37.334Z,11.67
2018-03-29T08:39:05.690Z,13.73
2018-03-29T08:41:33.927Z,12.80
2018-03-29T08:44:01.392Z,9.77
2018-03-29T08:46:28.882Z,14.23
2018-03-29T08:48:57.154Z,11.43
2018-03-29T08:51:24.620Z,10.40
2018-03-29T08:53:52.140Z,13.00
2018-03-29T08:56:24.534Z,8.03
2018-03-29T08:58:52.008Z,8.10
2018-03-29T09:01:19.501Z,7.30
2018-03-29T09:03:46.987Z,8.10
2018-03-29T09:06:14.470Z,8.37
2018-03-29T09:08:41.953Z,10.23
2018-03-29T09:11:10.247Z,10.70
2018-03-29T09:13:37.722Z,7.60
2018-03-29T09:16:05.209Z,8.33
2018-03-29T09:18:32.692Z,7.83
2018-03-29T09:21:00.174Z,9.93
2018-03-29T09:23:28.412Z,12.40
2018-03-29T09:25:59.082Z,12.87
2018-03-29T09:28:27.422Z,8.77
2018-03-29T09:30:54.912Z,8.63
2018-03-29T09:33:23.145Z,10.20
2018-03-29T09:35:50.651Z,7.70
2018-03-29T09:38:18.118Z,8.40
2018-03-29T09:40:45.658Z,14.67
2018-03-29T09:43:13.889Z,7.80
2018-03-29T09:45:41.362Z,7.70
2018-03-29T09:48:09.601Z,8.20
2018-03-29T09:50:37.097Z,7.70
2018-03-29T09:53:04.595Z,9.63
2018-03-29T09:55:32.859Z,8.20
2018-03-29T09:58:01.111Z,8.03
2018-03-29T10:00:34.286Z,9.50
2018-03-29T10:03:07.594Z,7.60
2018-03-29T10:05:38.302Z,11.60
2018-03-29T10:08:05.878Z,8.53
2018-03-29T10:10:33.433Z,10.77
2018-03-29T10:13:01.095Z,7.20
2018-03-29T10:15:28.551Z,8.90
2018-03-29T10:17:56.050Z,8.10
2018-03-29T10:20:23.510Z,7.53
2018-03-29T10:22:50.982Z,7.33
2018-03-29T10:25:18.495Z,7.33
2018-03-29T10:27:52.166Z,7.23
2018-03-29T10:30:19.646Z,8.53
2018-03-29T10:32:47.164Z,8.00
2018-03-29T10:35:14.644Z,9.63
2018-03-29T10:37:42.136Z,8.57
2018-03-29T10:40:09.611Z,7.80
2018-03-29T10:42:37.093Z,6.10
2018-03-29T10:45:04.553Z,5.90
2018-03-29T10:47:32.813Z,6.37
2018-03-29T10:50:00.295Z,6.93
2018-03-29T10:52:28.585Z,6.20
2018-03-29T10:54:56.819Z,6.13
2018-03-29T10:57:24.381Z,5.90
2018-03-29T10:59:51.850Z,5.60
2018-03-29T11:02:19.366Z,5.80
2018-03-29T11:04:46.887Z,4.73
2018-03-29T11:07:15.123Z,3.83
2018-03-29T11:09:42.644Z,6.03
2018-03-29T11:12:10.137Z,4.60
2018-03-29T11:14:37.623Z,4.87
2018-03-29T11:17:05.073Z,4.63
2018-03-29T11:19:32.656Z,4.20
2018-03-29T11:22:00.891Z,4.37
2018-03-29T11:24:28.400Z,5.20
2018-03-29T11:26:55.900Z,4.17
2018-03-29T11:29:23.366Z,4.37
2018-03-29T11:31:50.870Z,4.40
2018-03-29T11:34:19.112Z,5.20
2018-03-29T11:36:46.635Z,6.80
2018-03-29T11:39:14.251Z,5.20
2018-03-29T11:41:41.736Z,4.07
2018-03-29T11:44:10.011Z,4.80
2018-03-29T11:46:38.545Z,4.93
2018-03-29T11:49:06.679Z,5.37
2018-03-29T11:51:34.183Z,3.70
2018-03-29T11:54:01.693Z,3.63
2018-03-29T11:56:29.186Z,4.30
2018-03-29T11:58:56.699Z,6.20
2018-03-29T12:01:24.978Z,4.30
2018-03-29T12:03:53.229Z,4.07
2018-03-29T12:06:20.724Z,4.60
2018-03-29T12:08:48.233Z,3.47
2018-03-29T12:11:15.729Z,3.30
2018-03-29T12:13:44.011Z,3.43
2018-03-29T12:16:11.535Z,3.43
2018-03-29T12:18:39.058Z,4.57
2018-03-29T12:21:06.555Z,2.70
2018-03-29T12:23:34.123Z,5.00
2018-03-29T12:26:01.611Z,3.30
2018-03-29T12:28:29.160Z,26.93
2018-03-29T12:30:57.439Z,3.10
2018-03-29T12:33:24.951Z,3.90
2018-03-29T12:35:52.433Z,4.23
2018-03-29T12:38:19.911Z,4.07
2018-03-29T12:40:47.457Z,3.83
2018-03-29T12:43:14.929Z,3.67
2018-03-29T12:45:43.475Z,4.13
2018-03-29T12:48:11.071Z,4.20
2018-03-29T12:50:38.579Z,4.40
2018-03-29T12:53:06.084Z,4.50
2018-03-29T12:55:40.222Z,4.03
2018-03-29T12:58:10.540Z,4.77
2018-03-29T13:00:38.870Z,3.07
2018-03-29T13:03:06.379Z,3.43
2018-03-29T13:05:33.882Z,2.70
2018-03-29T13:08:01.336Z,3.43
2018-03-29T13:10:28.806Z,4.33
2018-03-29T13:12:56.335Z,3.27
2018-03-29T13:15:23.823Z,3.90
2018-03-29T13:17:51.390Z,4.20
2018-03-29T13:20:19.060Z,3.43
2018-03-29T13:22:47.467Z,4.90
2018-03-29T13:25:15.791Z,4.00
2018-03-29T13:27:44.105Z,4.03
2018-03-29T13:30:12.195Z,4.30
2018-03-29T13:32:39.718Z,4.53
2018-03-29T13:35:07.802Z,5.03
2018-03-29T13:37:35.319Z,3.87
2018-03-29T13:40:02.938Z,3.90
2018-03-29T13:42:30.469Z,3.57
2018-03-29T13:44:57.953Z,3.10
2018-03-29T13:47:25.423Z,3.30
2018-03-29T13:49:54.244Z,3.40
2018-03-29T13:52:21.774Z,3.23
2018-03-29T13:54:49.336Z,6.13
2018-03-29T13:57:16.885Z,3.77
2018-03-29T13:59:44.409Z,3.80
2018-03-29T14:02:11.900Z,3.33
2018-03-29T14:04:39.448Z,3.63
2018-03-29T14:07:06.959Z,3.43
2018-03-29T14:09:34.538Z,7.73
2018-03-29T14:12:02.076Z,4.37
2018-03-29T14:14:29.562Z,3.33
2018-03-29T14:16:57.099Z,4.20
2018-03-29T14:19:24.689Z,4.40
2018-03-29T14:21:52.400Z,3.10
2018-03-29T14:24:20.752Z,6.67
2018-03-29T14:26:48.292Z,3.03
2018-03-29T14:29:15.784Z,3.90
2018-03-29T14:31:44.074Z,8.73
2018-03-29T14:34:11.708Z,5.50
2018-03-29T14:36:39.747Z,3.43
2018-03-29T14:39:07.308Z,4.60
2018-03-29T14:41:35.620Z,5.77
2018-03-29T14:44:03.111Z,4.97
2018-03-29T14:46:31.377Z,2.47
2018-03-29T14:48:58.862Z,3.17
2018-03-29T14:51:26.337Z,7.23
2018-03-29T14:53:53.836Z,2.33
2018-03-29T14:56:21.320Z,4.47
2018-03-29T14:58:49.615Z,1.70
2018-03-29T15:01:17.129Z,2.43
2018-03-29T15:03:45.043Z,3.53
2018-03-29T15:06:12.527Z,2.70
2018-03-29T15:08:40.080Z,2.77
2018-03-29T15:11:07.566Z,3.63
2018-03-29T15:13:35.118Z,4.00
2018-03-29T15:16:02.564Z,4.27
2018-03-29T15:18:30.087Z,4.50
2018-03-29T15:20:57.606Z,2.20
2018-03-29T15:23:25.100Z,2.63
2018-03-29T15:25:52.584Z,2.13
2018-03-29T15:28:20.063Z,2.67
2018-03-29T15:30:47.570Z,2.53
2018-03-29T15:33:15.817Z,4.93
2018-03-29T15:35:43.507Z,2.73
2018-03-29T15:38:11.737Z,8.03
2018-03-29T15:40:39.234Z,10.43
2018-03-29T15:43:06.744Z,3.77
2018-03-29T15:45:34.308Z,4.27
2018-03-29T15:48:01.871Z,2.93
2018-03-29T15:50:29.432Z,4.00
2018-03-29T15:52:56.957Z,3.33
2018-03-29T15:55:24.451Z,6.03
2018-03-29T15:57:51.939Z,3.63
2018-03-29T16:00:19.565Z,2.50
2018-03-29T16:02:47.056Z,2.40
2018-03-29T16:05:14.615Z,2.20
2018-03-29T16:07:42.102Z,6.20
2018-03-29T16:10:10.450Z,2.03
2018-03-29T16:12:38.261Z,2.53
2018-03-29T16:15:06.537Z,2.53
2018-03-29T16:17:34.366Z,2.60
2018-03-29T16:20:01.890Z,2.83
2018-03-29T16:22:30.208Z,2.73
2018-03-29T16:24:58.462Z,3.60
2018-03-29T16:27:25.962Z,3.80
2018-03-29T16:29:55.469Z,2.83
2018-03-29T16:32:23.572Z,2.77
2018-03-29T16:34:51.068Z,8.47
2018-03-29T16:37:18.558Z,2.60
2018-03-29T16:39:46.038Z,2.50
2018-03-29T16:42:13.549Z,3.83
2018-03-29T16:44:41.158Z,2.30
2018-03-29T16:47:09.407Z,1.90
2018-03-29T16:49:36.909Z,3.40
2018-03-29T16:52:04.399Z,2.00
2018-03-29T16:54:31.895Z,2.40
2018-03-29T16:57:00.131Z,3.00
2018-03-29T16:59:27.627Z,3.60
2018-03-29T17:01:55.126Z,2.20
2018-03-29T17:04:22.648Z,2.63
2018-03-29T17:06:50.152Z,3.90
2018-03-29T17:09:17.827Z,3.57
2018-03-29T17:11:45.336Z,3.93
2018-03-29T17:14:13.563Z,2.33
2018-03-29T17:16:41.066Z,2.27
2018-03-29T17:19:09.328Z,2.27
2018-03-29T17:21:36.874Z,3.47
2018-03-29T17:24:04.391Z,4.00
2018-03-29T17:26:31.870Z,7.10
2018-03-29T17:28:59.329Z,2.93
2018-03-29T17:31:26.838Z,2.70
2018-03-29T17:33:55.078Z,4.43
2018-03-29T17:36:22.570Z,8.03
2018-03-29T17:38:50.802Z,5.13
2018-03-29T17:41:18.353Z,6.40
2018-03-29T17:43:46.559Z,6.20
2018-03-29T17:46:14.049Z,7.07
2018-03-29T17:48:42.322Z,9.00
2018-03-29T17:51:10.581Z,7.60
2018-03-29T17:53:38.037Z,4.27
2018-03-29T17:56:06.307Z,4.30
2018-03-29T17:58:33.779Z,6.10
2018-03-29T18:01:01.319Z,9.33
2018-03-29T18:03:28.876Z,11.03
2018-03-29T18:05:56.432Z,13.13
2018-03-29T18:08:23.907Z,13.70
2018-03-29T18:10:51.384Z,7.87
2018-03-29T18:13:18.980Z,5.57
2018-03-29T18:15:46.545Z,4.30
2018-03-29T18:18:14.284Z,7.30
2018-03-29T18:20:42.540Z,6.83
2018-03-29T18:23:10.819Z,11.87
2018-03-29T18:25:39.137Z,10.27
2018-03-29T18:28:06.673Z,10.80
2018-03-29T18:30:34.917Z,14.20
2018-03-29T18:33:02.507Z,5.73
2018-03-29T18:35:30.811Z,7.97
2018-03-29T18:37:58.318Z,7.50
2018-03-29T18:40:25.853Z,8.07
2018-03-29T18:42:53.381Z,11.63
2018-03-29T18:45:20.930Z,8.70
2018-03-29T18:47:48.469Z,9.53
2018-03-29T18:50:16.184Z,7.00
2018-03-29T18:52:43.649Z,9.20
2018-03-29T18:55:11.190Z,4.93
2018-03-29T18:57:38.668Z,5.23
2018-03-29T19:00:06.234Z,6.37
2018-03-29T19:02:33.726Z,4.87
2018-03-29T19:05:01.245Z,5.13
2018-03-29T19:07:28.699Z,4.10
2018-03-29T19:09:56.241Z,5.83
2018-03-29T19:12:23.717Z,4.83
2018-03-29T19:14:51.371Z,5.03
2018-03-29T19:17:18.889Z,4.63
2018-03-29T19:19:47.163Z,5.63
2018-03-29T19:22:15.479Z,4.70
2018-03-29T19:24:43.077Z,4.50
2018-03-29T19:27:10.659Z,5.10
2018-03-29T19:29:38.208Z,4.40
2018-03-29T19:32:11.154Z,4.33
2018-03-29T19:34:40.133Z,4.53
2018-03-29T19:37:07.704Z,7.43
2018-03-29T19:39:35.251Z,5.27
2018-03-29T19:42:02.743Z,5.30
2018-03-29T19:44:30.441Z,6.90
2018-03-29T19:46:58.178Z,8.13
2018-03-29T19:49:26.707Z,6.00
2018-03-29T19:51:54.989Z,6.43
2018-03-29T19:54:22.519Z,4.60
2018-03-29T19:56:50.045Z,6.63
2018-03-29T19:59:17.691Z,4.97
2018-03-29T20:01:45.182Z,5.83
2018-03-29T20:04:12.675Z,4.97
2018-03-29T20:06:40.749Z,14.93
2018-03-29T20:09:08.224Z,5.50
2018-03-29T20:11:36.610Z,5.67
2018-03-29T20:14:04.120Z,12.97
2018-03-29T20:16:31.617Z,6.57
2018-03-29T20:18:59.948Z,6.30
2018-03-29T20:21:28.233Z,8.63
2018-03-29T20:23:55.811Z,8.57
2018-03-29T20:26:23.272Z,8.80
2018-03-29T20:28:50.848Z,17.60
2018-03-29T20:31:18.287Z,10.60
2018-03-29T20:33:45.813Z,8.07
2018-03-29T20:36:13.287Z,6.07
2018-03-29T20:38:40.769Z,5.53
2018-03-29T20:41:08.277Z,13.60
2018-03-29T20:43:35.785Z,3.87
2018-03-29T20:46:03.270Z,4.30
2018-03-29T20:48:30.798Z,4.47
2018-03-29T20:50:58.355Z,4.43
2018-03-29T20:53:25.852Z,4.57
2018-03-29T20:55:53.382Z,4.20
2018-03-29T20:58:20.821Z,4.37
2018-03-29T21:00:48.290Z,7.63
2018-03-29T21:03:15.785Z,4.73
2018-03-29T21:05:43.528Z,5.37
2018-03-29T21:08:11.779Z,4.40
2018-03-29T21:10:39.260Z,7.53
2018-03-29T21:13:07.533Z,4.17
2018-03-29T21:15:35.365Z,4.17
2018-03-29T21:18:02.874Z,4.10
2018-03-29T21:20:31.261Z,7.27
2018-03-29T21:22:59.506Z,8.00
2018-03-29T21:25:26.989Z,6.73
2018-03-29T21:27:55.227Z,6.43
2018-03-29T21:30:22.699Z,7.37
2018-03-29T21:32:50.185Z,7.00
2018-03-29T21:35:18.504Z,5.90
2018-03-29T21:37:46.018Z,6.27
2018-03-29T21:40:14.269Z,5.70
2018-03-29T21:42:41.746Z,6.10
2018-03-29T21:45:09.233Z,9.63
2018-03-29T21:47:36.781Z,6.67
2018-03-29T21:50:04.217Z,9.57
2018-03-29T21:52:31.716Z,7.40
2018-03-29T21:54:59.231Z,15.63
2018-03-29T21:57:27.139Z,15.37
2018-03-29T21:59:54.634Z,5.57
2018-03-29T22:02:22.151Z,6.57
2018-03-29T22:04:49.634Z,5.40
2018-03-29T22:07:17.132Z,6.30
2018-03-29T22:09:44.606Z,6.27
2018-03-29T22:12:12.883Z,6.43
2018-03-29T22:14:41.177Z,8.03
2018-03-29T22:17:09.481Z,5.83
2018-03-29T22:19:37.731Z,10.57
2018-03-29T22:22:05.255Z,6.17
2018-03-29T22:24:32.719Z,6.27
2018-03-29T22:27:00.187Z,6.80
2018-03-29T22:29:28.454Z,8.57
2018-03-29T22:31:55.945Z,7.70
2018-03-29T22:34:24.235Z,6.70
2018-03-29T22:36:51.742Z,12.73
2018-03-29T22:39:19.211Z,7.37
2018-03-29T22:41:46.719Z,6.83
2018-03-29T22:44:14.193Z,6.93
2018-03-29T22:46:41.697Z,7.70
2018-03-29T22:49:09.731Z,9.90
2018-03-29T22:51:38.218Z,6.37
2018-03-29T22:54:05.815Z,7.13
2018-03-29T22:56:34.165Z,7.10
2018-03-29T22:59:01.628Z,9.43
2018-03-29T23:01:30.045Z,10.67
2018-03-29T23:03:57.457Z,6.13
2018-03-29T23:06:25.908Z,6.83
2018-03-29T23:08:53.384Z,8.20
2018-03-29T23:11:21.188Z,7.90
2018-03-29T23:13:49.431Z,6.57
2018-03-29T23:16:17.528Z,9.47
2018-03-29T23:18:45.826Z,7.87
2018-03-29T23:21:13.600Z,6.80
2018-03-29T23:23:41.243Z,6.70
2018-03-29T23:26:09.497Z,6.87
2018-03-29T23:28:36.987Z,8.43
2018-03-29T23:31:04.502Z,6.97
2018-03-29T23:33:31.972Z,8.20
2018-03-29T23:35:59.435Z,8.00
2018-03-29T23:38:26.920Z,7.87
2018-03-29T23:40:55.184Z,7.80
2018-03-29T23:43:23.521Z,11.33
2018-03-29T23:45:50.995Z,16.93
2018-03-29T23:48:18.491Z,10.63
2018-03-29T23:50:46.717Z,9.13
2018-03-29T23:53:14.207Z,8.60
2018-03-29T23:55:41.673Z,9.97
2018-03-29T23:58:16.842Z,8.27
